sensor_id;sensor_type;location;lat;lon;timestamp;pressure;altitude;pressure_sealevel;temperature;humidity
39739;BME280;25422;48.286;8.484;2023-07-30T00:01:05;93854.84;;;15.18;100.00
39739;BME280;25422;48.286;8.484;2023-07-30T00:03:31;93854.66;;;15.20;100.00
39739;BME280;25422;48.286;8.484;2023-07-30T00:05:56;93850.19;;;15.13;100.00
39739;BME280;25422;48.286;8.484;2023-07-30T00:08:22;93850.81;;;15.15;100.00
39739;BME280;25422;48.286;8.484;2023-07-30T00:10:48;93861.94;;;15.17;100.00
39739;BME280;25422;48.286;8.484;2023-07-30T00:13:14;93855.22;;;15.22;100.00
39739;BME280;25422;48.286;8.484;2023-07-30T00:15:39;93849.16;;;15.21;100.00
39739;BME280;25422;48.286;8.484;2023-07-30T00:18:05;93851.16;;;15.26;100.00
39739;BME280;25422;48.286;8.484;2023-07-30T00:20:31;93852.38;;;15.23;100.00
39739;BME280;25422;48.286;8.484;2023-07-30T00:22:56;93842.25;;;15.27;100.00
39739;BME280;25422;48.286;8.484;2023-07-30T00:25:22;93845.50;;;15.36;100.00
39739;BME280;25422;48.286;8.484;2023-07-30T00:27:47;93834.94;;;15.36;100.00
39739;BME280;25422;48.286;8.484;2023-07-30T00:30:12;93843.03;;;15.34;100.00
39739;BME280;25422;48.286;8.484;2023-07-30T00:32:38;93848.16;;;15.29;100.00
39739;BME280;25422;48.286;8.484;2023-07-30T00:35:09;93844.28;;;15.31;100.00
39739;BME280;25422;48.286;8.484;2023-07-30T00:37:35;93845.09;;;15.32;100.00
39739;BME280;25422;48.286;8.484;2023-07-30T00:40:01;93850.94;;;15.41;100.00
39739;BME280;25422;48.286;8.484;2023-07-30T00:42:27;93852.78;;;15.40;100.00
39739;BME280;25422;48.286;8.484;2023-07-30T00:44:52;93850.31;;;15.45;100.00
39739;BME280;25422;48.286;8.484;2023-07-30T00:47:17;93847.66;;;15.52;100.00
39739;BME280;25422;48.286;8.484;2023-07-30T00:49:43;93844.81;;;15.54;100.00
39739;BME280;25422;48.286;8.484;2023-07-30T00:52:08;93853.97;;;15.51;100.00
39739;BME280;25422;48.286;8.484;2023-07-30T00:54:34;93854.53;;;15.53;100.00
39739;BME280;25422;48.286;8.484;2023-07-30T00:57:00;93856.81;;;15.49;100.00
39739;BME280;25422;48.286;8.484;2023-07-30T00:59:26;93854.38;;;15.48;100.00
39739;BME280;25422;48.286;8.484;2023-07-30T01:01:51;93856.19;;;15.41;100.00
39739;BME280;25422;48.286;8.484;2023-07-30T01:04:18;93863.72;;;15.37;100.00
39739;BME280;25422;48.286;8.484;2023-07-30T01:06:44;93863.97;;;15.29;100.00
39739;BME280;25422;48.286;8.484;2023-07-30T01:09:10;93866.97;;;15.26;100.00
39739;BME280;25422;48.286;8.484;2023-07-30T01:11:36;93871.88;;;15.22;100.00
39739;BME280;25422;48.286;8.484;2023-07-30T01:14:05;93876.94;;;15.24;100.00
39739;BME280;25422;48.286;8.484;2023-07-30T01:16:30;93868.63;;;15.20;100.00
39739;BME280;25422;48.286;8.484;2023-07-30T01:18:56;93876.75;;;15.12;100.00
39739;BME280;25422;48.286;8.484;2023-07-30T01:21:21;93865.00;;;15.14;100.00
39739;BME280;25422;48.286;8.484;2023-07-30T01:23:47;93871.88;;;15.15;100.00
39739;BME280;25422;48.286;8.484;2023-07-30T01:26:19;93872.69;;;15.23;100.00
39739;BME280;25422;48.286;8.484;2023-07-30T01:28:49;93873.69;;;15.15;100.00
39739;BME280;25422;48.286;8.484;2023-07-30T01:31:17;93865.78;;;15.08;100.00
39739;BME280;25422;48.286;8.484;2023-07-30T01:33:46;93872.69;;;15.03;100.00
39739;BME280;25422;48.286;8.484;2023-07-30T01:36:15;93873.69;;;15.01;100.00
39739;BME280;25422;48.286;8.484;2023-07-30T01:38:42;93881.22;;;14.98;100.00
39739;BME280;25422;48.286;8.484;2023-07-30T01:41:07;93881.44;;;14.90;100.00
39739;BME280;25422;48.286;8.484;2023-07-30T01:43:33;93875.16;;;14.91;100.00
39739;BME280;25422;48.286;8.484;2023-07-30T01:45:59;93871.69;;;14.83;100.00
39739;BME280;25422;48.286;8.484;2023-07-30T01:48:24;93880.00;;;14.87;100.00
39739;BME280;25422;48.286;8.484;2023-07-30T01:50:49;93881.03;;;14.86;100.00
39739;BME280;25422;48.286;8.484;2023-07-30T01:53:15;93875.97;;;14.84;100.00
39739;BME280;25422;48.286;8.484;2023-07-30T01:55:41;93866.22;;;14.72;100.00
39739;BME280;25422;48.286;8.484;2023-07-30T01:58:09;93875.16;;;14.71;100.00
39739;BME280;25422;48.286;8.484;2023-07-30T02:00:35;93872.53;;;14.64;100.00
39739;BME280;25422;48.286;8.484;2023-07-30T02:03:03;93869.88;;;14.64;100.00
39739;BME280;25422;48.286;8.484;2023-07-30T02:05:29;93863.16;;;14.55;100.00
39739;BME280;25422;48.286;8.484;2023-07-30T02:07:54;93866.78;;;14.54;100.00
39739;BME280;25422;48.286;8.484;2023-07-30T02:10:19;93866.38;;;14.57;100.00
39739;BME280;25422;48.286;8.484;2023-07-30T02:12:45;93875.09;;;14.50;100.00
39739;BME280;25422;48.286;8.484;2023-07-30T02:15:10;93878.75;;;14.49;100.00
39739;BME280;25422;48.286;8.484;2023-07-30T02:17:36;93879.16;;;14.53;100.00
39739;BME280;25422;48.286;8.484;2023-07-30T02:20:01;93871.84;;;14.48;100.00
39739;BME280;25422;48.286;8.484;2023-07-30T02:22:27;93881.97;;;14.38;100.00
39739;BME280;25422;48.286;8.484;2023-07-30T02:24:52;93868.81;;;14.38;100.00
39739;BME280;25422;48.286;8.484;2023-07-30T02:27:18;93872.06;;;14.47;100.00
39739;BME280;25422;48.286;8.484;2023-07-30T02:29:43;93860.09;;;14.44;100.00
39739;BME280;25422;48.286;8.484;2023-07-30T02:32:09;93859.31;;;14.50;100.00
39739;BME280;25422;48.286;8.484;2023-07-30T02:34:34;93870.06;;;14.56;100.00
39739;BME280;25422;48.286;8.484;2023-07-30T02:36:59;93862.75;;;14.58;100.00
39739;BME280;25422;48.286;8.484;2023-07-30T02:39:25;93865.38;;;14.58;100.00
39739;BME280;25422;48.286;8.484;2023-07-30T02:41:50;93868.25;;;14.63;100.00
39739;BME280;25422;48.286;8.484;2023-07-30T02:44:16;93869.66;;;14.59;100.00
39739;BME280;25422;48.286;8.484;2023-07-30T02:46:41;93878.34;;;14.59;100.00
39739;BME280;25422;48.286;8.484;2023-07-30T02:49:07;93867.81;;;14.59;100.00
39739;BME280;25422;48.286;8.484;2023-07-30T02:51:33;93878.13;;;14.61;100.00
39739;BME280;25422;48.286;8.484;2023-07-30T02:54:03;93869.44;;;14.60;100.00
39739;BME280;25422;48.286;8.484;2023-07-30T02:56:29;93861.75;;;14.59;100.00
39739;BME280;25422;48.286;8.484;2023-07-30T02:58:55;93863.97;;;14.55;100.00
39739;BME280;25422;48.286;8.484;2023-07-30T03:01:20;93875.13;;;14.57;100.00
39739;BME280;25422;48.286;8.484;2023-07-30T03:03:45;93875.31;;;14.56;100.00
39739;BME280;25422;48.286;8.484;2023-07-30T03:06:11;93877.13;;;14.55;100.00
39739;BME280;25422;48.286;8.484;2023-07-30T03:08:36;93873.06;;;14.53;100.00
39739;BME280;25422;48.286;8.484;2023-07-30T03:11:02;93867.78;;;14.46;100.00
39739;BME280;25422;48.286;8.484;2023-07-30T03:13:27;93866.19;;;14.38;100.00
39739;BME280;25422;48.286;8.484;2023-07-30T03:15:53;93869.22;;;14.28;100.00
39739;BME280;25422;48.286;8.484;2023-07-30T03:18:18;93868.78;;;14.25;100.00
39739;BME280;25422;48.286;8.484;2023-07-30T03:20:44;93878.69;;;14.23;100.00
39739;BME280;25422;48.286;8.484;2023-07-30T03:23:09;93881.13;;;14.11;100.00
39739;BME280;25422;48.286;8.484;2023-07-30T03:25:35;93875.63;;;14.06;100.00
39739;BME280;25422;48.286;8.484;2023-07-30T03:28:00;93876.59;;;13.98;100.00
39739;BME280;25422;48.286;8.484;2023-07-30T03:30:25;93875.38;;;13.94;100.00
39739;BME280;25422;48.286;8.484;2023-07-30T03:32:51;93881.03;;;13.91;100.00
39739;BME280;25422;48.286;8.484;2023-07-30T03:35:16;93884.84;;;13.81;100.00
39739;BME280;25422;48.286;8.484;2023-07-30T03:37:42;93890.09;;;13.75;100.00
39739;BME280;25422;48.286;8.484;2023-07-30T03:40:08;93894.75;;;13.73;100.00
39739;BME280;25422;48.286;8.484;2023-07-30T03:42:33;93895.06;;;13.63;100.00
39739;BME280;25422;48.286;8.484;2023-07-30T03:44:59;93887.34;;;13.55;100.00
39739;BME280;25422;48.286;8.484;2023-07-30T03:47:24;93888.94;;;13.49;100.00
39739;BME280;25422;48.286;8.484;2023-07-30T03:49:50;93889.13;;;13.41;100.00
39739;BME280;25422;48.286;8.484;2023-07-30T03:52:15;93886.06;;;13.37;100.00
39739;BME280;25422;48.286;8.484;2023-07-30T03:54:42;93884.25;;;13.38;100.00
39739;BME280;25422;48.286;8.484;2023-07-30T03:57:08;93890.31;;;13.38;100.00
39739;BME280;25422;48.286;8.484;2023-07-30T03:59:33;93892.13;;;13.38;100.00
39739;BME280;25422;48.286;8.484;2023-07-30T04:01:59;93898.44;;;13.43;100.00
39739;BME280;25422;48.286;8.484;2023-07-30T04:04:24;93897.22;;;13.46;100.00
39739;BME280;25422;48.286;8.484;2023-07-30T04:06:50;93893.59;;;13.47;100.00
39739;BME280;25422;48.286;8.484;2023-07-30T04:09:15;93897.03;;;13.47;100.00
39739;BME280;25422;48.286;8.484;2023-07-30T04:11:41;93898.47;;;13.50;100.00
39739;BME280;25422;48.286;8.484;2023-07-30T04:14:06;93898.25;;;13.52;100.00
39739;BME280;25422;48.286;8.484;2023-07-30T04:16:34;93899.47;;;13.49;100.00
39739;BME280;25422;48.286;8.484;2023-07-30T04:18:59;93903.91;;;13.48;100.00
39739;BME280;25422;48.286;8.484;2023-07-30T04:21:25;93912.00;;;13.54;100.00
39739;BME280;25422;48.286;8.484;2023-07-30T04:23:50;93908.41;;;13.61;100.00
39739;BME280;25422;48.286;8.484;2023-07-30T04:26:17;93910.47;;;13.66;100.00
39739;BME280;25422;48.286;8.484;2023-07-30T04:28:42;93908.84;;;13.65;100.00
39739;BME280;25422;48.286;8.484;2023-07-30T04:31:08;93913.16;;;13.79;100.00
39739;BME280;25422;48.286;8.484;2023-07-30T04:33:33;93899.38;;;13.71;100.00
39739;BME280;25422;48.286;8.484;2023-07-30T04:35:59;93896.94;;;13.69;100.00
39739;BME280;25422;48.286;8.484;2023-07-30T04:38:25;93902.63;;;13.73;100.00
39739;BME280;25422;48.286;8.484;2023-07-30T04:40:51;93906.84;;;13.74;100.00
39739;BME280;25422;48.286;8.484;2023-07-30T04:43:17;93898.75;;;13.69;100.00
39739;BME280;25422;48.286;8.484;2023-07-30T04:45:44;93912.06;;;13.67;100.00
39739;BME280;25422;48.286;8.484;2023-07-30T04:48:11;93907.88;;;13.73;100.00
39739;BME280;25422;48.286;8.484;2023-07-30T04:50:37;93907.13;;;13.86;100.00
39739;BME280;25422;48.286;8.484;2023-07-30T04:53:04;93904.97;;;14.16;100.00
39739;BME280;25422;48.286;8.484;2023-07-30T04:55:30;93899.41;;;14.59;100.00
39739;BME280;25422;48.286;8.484;2023-07-30T04:57:56;93906.72;;;15.11;100.00
39739;BME280;25422;48.286;8.484;2023-07-30T05:00:21;93910.94;;;15.59;100.00
39739;BME280;25422;48.286;8.484;2023-07-30T05:02:47;93899.66;;;16.04;100.00
39739;BME280;25422;48.286;8.484;2023-07-30T05:05:13;93904.44;;;16.20;100.00
39739;BME280;25422;48.286;8.484;2023-07-30T05:07:39;93897.88;;;16.36;100.00
39739;BME280;25422;48.286;8.484;2023-07-30T05:10:05;93902.94;;;16.63;100.00
39739;BME280;25422;48.286;8.484;2023-07-30T05:12:32;93893.84;;;16.91;100.00
39739;BME280;25422;48.286;8.484;2023-07-30T05:14:57;93894.09;;;16.82;100.00
39739;BME280;25422;48.286;8.484;2023-07-30T05:17:22;93900.31;;;16.95;100.00
39739;BME280;25422;48.286;8.484;2023-07-30T05:19:48;93905.38;;;17.65;100.00
39739;BME280;25422;48.286;8.484;2023-07-30T05:22:13;93893.66;;;18.90;100.00
39739;BME280;25422;48.286;8.484;2023-07-30T05:24:39;93893.66;;;19.84;100.00
39739;BME280;25422;48.286;8.484;2023-07-30T05:27:05;93895.09;;;20.74;100.00
39739;BME280;25422;48.286;8.484;2023-07-30T05:29:30;93910.59;;;21.62;100.00
39739;BME280;25422;48.286;8.484;2023-07-30T05:31:56;93911.44;;;22.29;100.00
39739;BME280;25422;48.286;8.484;2023-07-30T05:34:21;93911.41;;;23.00;100.00
39739;BME280;25422;48.286;8.484;2023-07-30T05:36:46;93926.22;;;22.59;100.00
39739;BME280;25422;48.286;8.484;2023-07-30T05:39:12;93911.97;;;22.75;100.00
39739;BME280;25422;48.286;8.484;2023-07-30T05:41:37;93914.41;;;23.09;100.00
39739;BME280;25422;48.286;8.484;2023-07-30T05:44:03;93914.78;;;23.18;100.00
39739;BME280;25422;48.286;8.484;2023-07-30T05:46:28;93911.91;;;23.62;100.00
39739;BME280;25422;48.286;8.484;2023-07-30T05:48:54;93909.66;;;23.86;100.00
39739;BME280;25422;48.286;8.484;2023-07-30T05:51:19;93904.44;;;25.06;93.25
39739;BME280;25422;48.286;8.484;2023-07-30T05:53:44;93904.09;;;23.98;97.79
39739;BME280;25422;48.286;8.484;2023-07-30T05:56:10;93907.09;;;24.07;96.12
39739;BME280;25422;48.286;8.484;2023-07-30T05:58:38;93907.31;;;23.95;97.69
39739;BME280;25422;48.286;8.484;2023-07-30T06:01:03;93912.06;;;22.58;100.00
39739;BME280;25422;48.286;8.484;2023-07-30T06:03:28;93920.34;;;22.34;100.00
39739;BME280;25422;48.286;8.484;2023-07-30T06:05:54;93924.03;;;22.33;100.00
39739;BME280;25422;48.286;8.484;2023-07-30T06:08:19;93918.50;;;22.62;100.00
39739;BME280;25422;48.286;8.484;2023-07-30T06:10:45;93918.34;;;24.14;98.33
39739;BME280;25422;48.286;8.484;2023-07-30T06:13:12;93910.03;;;24.79;93.67
39739;BME280;25422;48.286;8.484;2023-07-30T06:15:37;93913.66;;;24.42;99.27
39739;BME280;25422;48.286;8.484;2023-07-30T06:18:03;93920.25;;;25.75;83.97
39739;BME280;25422;48.286;8.484;2023-07-30T06:20:29;93919.38;;;24.77;90.00
39739;BME280;25422;48.286;8.484;2023-07-30T06:22:54;93916.16;;;24.06;92.54
39739;BME280;25422;48.286;8.484;2023-07-30T06:25:23;93919.06;;;23.99;91.06
39739;BME280;25422;48.286;8.484;2023-07-30T06:27:48;93926.81;;;22.21;100.00
39739;BME280;25422;48.286;8.484;2023-07-30T06:30:14;93927.31;;;21.96;100.00
39739;BME280;25422;48.286;8.484;2023-07-30T06:32:39;93938.41;;;21.03;100.00
39739;BME280;25422;48.286;8.484;2023-07-30T06:35:05;93932.19;;;21.14;100.00
39739;BME280;25422;48.286;8.484;2023-07-30T06:37:31;93941.81;;;21.15;100.00
39739;BME280;25422;48.286;8.484;2023-07-30T06:39:56;93950.84;;;20.57;100.00
39739;BME280;25422;48.286;8.484;2023-07-30T06:42:21;93950.94;;;20.21;100.00
39739;BME280;25422;48.286;8.484;2023-07-30T06:44:47;93951.00;;;20.79;100.00
39739;BME280;25422;48.286;8.484;2023-07-30T06:47:12;93957.81;;;20.86;100.00
39739;BME280;25422;48.286;8.484;2023-07-30T06:49:38;93950.53;;;20.82;100.00
39739;BME280;25422;48.286;8.484;2023-07-30T06:52:03;93958.75;;;20.80;100.00
39739;BME280;25422;48.286;8.484;2023-07-30T06:54:29;93961.16;;;20.41;100.00
39739;BME280;25422;48.286;8.484;2023-07-30T06:56:55;93964.59;;;20.13;100.00
39739;BME280;25422;48.286;8.484;2023-07-30T06:59:20;93970.47;;;20.67;100.00
39739;BME280;25422;48.286;8.484;2023-07-30T07:01:45;93969.72;;;20.84;100.00
39739;BME280;25422;48.286;8.484;2023-07-30T07:04:11;93966.81;;;20.16;100.00
39739;BME280;25422;48.286;8.484;2023-07-30T07:06:36;93974.22;;;20.43;100.00
39739;BME280;25422;48.286;8.484;2023-07-30T07:09:02;93972.00;;;21.09;100.00
39739;BME280;25422;48.286;8.484;2023-07-30T07:11:28;93975.56;;;22.00;100.00
39739;BME280;25422;48.286;8.484;2023-07-30T07:13:53;93978.56;;;21.35;100.00
39739;BME280;25422;48.286;8.484;2023-07-30T07:16:19;93976.19;;;20.88;100.00
39739;BME280;25422;48.286;8.484;2023-07-30T07:18:44;93976.47;;;21.20;100.00
39739;BME280;25422;48.286;8.484;2023-07-30T07:21:10;93967.50;;;21.55;100.00
39739;BME280;25422;48.286;8.484;2023-07-30T07:23:36;93960.34;;;21.44;100.00
39739;BME280;25422;48.286;8.484;2023-07-30T07:26:01;93970.31;;;21.88;100.00
39739;BME280;25422;48.286;8.484;2023-07-30T07:28:27;93960.41;;;22.00;100.00
39739;BME280;25422;48.286;8.484;2023-07-30T07:30:52;93960.59;;;21.43;100.00
39739;BME280;25422;48.286;8.484;2023-07-30T07:33:17;93951.97;;;22.48;100.00
39739;BME280;25422;48.286;8.484;2023-07-30T07:35:43;93961.78;;;21.35;100.00
39739;BME280;25422;48.286;8.484;2023-07-30T07:38:08;93975.28;;;20.82;100.00
39739;BME280;25422;48.286;8.484;2023-07-30T07:40:37;93973.50;;;20.18;100.00
39739;BME280;25422;48.286;8.484;2023-07-30T07:43:05;93977.72;;;20.31;100.00
39739;BME280;25422;48.286;8.484;2023-07-30T07:45:31;93970.19;;;20.40;100.00
39739;BME280;25422;48.286;8.484;2023-07-30T07:47:56;93965.03;;;20.74;100.00
39739;BME280;25422;48.286;8.484;2023-07-30T07:50:22;93976.13;;;21.17;100.00
39739;BME280;25422;48.286;8.484;2023-07-30T07:52:47;93981.97;;;21.48;100.00
39739;BME280;25422;48.286;8.484;2023-07-30T07:55:13;93978.72;;;20.54;100.00
39739;BME280;25422;48.286;8.484;2023-07-30T07:57:38;93977.13;;;20.29;100.00
39739;BME280;25422;48.286;8.484;2023-07-30T08:00:04;93976.03;;;20.13;100.00
39739;BME280;25422;48.286;8.484;2023-07-30T08:02:37;93974.19;;;19.54;100.00
39739;BME280;25422;48.286;8.484;2023-07-30T08:05:03;93971.66;;;19.71;100.00
39739;BME280;25422;48.286;8.484;2023-07-30T08:07:28;93967.75;;;19.86;100.00
39739;BME280;25422;48.286;8.484;2023-07-30T08:09:54;93980.09;;;20.04;100.00
39739;BME280;25422;48.286;8.484;2023-07-30T08:12:20;93987.63;;;19.83;100.00
39739;BME280;25422;48.286;8.484;2023-07-30T08:14:45;93980.22;;;19.08;100.00
39739;BME280;25422;48.286;8.484;2023-07-30T08:17:10;94002.31;;;18.71;100.00
39739;BME280;25422;48.286;8.484;2023-07-30T08:19:36;93996.00;;;19.02;100.00
39739;BME280;25422;48.286;8.484;2023-07-30T08:22:01;93998.84;;;18.70;100.00
39739;BME280;25422;48.286;8.484;2023-07-30T08:24:27;94009.19;;;18.42;100.00
39739;BME280;25422;48.286;8.484;2023-07-30T08:26:52;94015.28;;;17.86;100.00
39739;BME280;25422;48.286;8.484;2023-07-30T08:29:18;94016.53;;;17.59;100.00
39739;BME280;25422;48.286;8.484;2023-07-30T08:31:43;94022.34;;;17.17;100.00
39739;BME280;25422;48.286;8.484;2023-07-30T08:34:09;94016.47;;;16.76;100.00
39739;BME280;25422;48.286;8.484;2023-07-30T08:36:34;94020.53;;;16.72;100.00
39739;BME280;25422;48.286;8.484;2023-07-30T08:39:01;94024.66;;;16.61;100.00
39739;BME280;25422;48.286;8.484;2023-07-30T08:41:27;94019.03;;;16.51;100.00
39739;BME280;25422;48.286;8.484;2023-07-30T08:43:52;94023.13;;;16.40;100.00
39739;BME280;25422;48.286;8.484;2023-07-30T08:46:18;94019.63;;;16.53;100.00
39739;BME280;25422;48.286;8.484;2023-07-30T08:48:43;94019.59;;;16.60;100.00
39739;BME280;25422;48.286;8.484;2023-07-30T08:51:11;94023.38;;;16.77;100.00
39739;BME280;25422;48.286;8.484;2023-07-30T08:53:38;94017.41;;;16.89;100.00
39739;BME280;25422;48.286;8.484;2023-07-30T08:56:05;94025.19;;;16.83;100.00
39739;BME280;25422;48.286;8.484;2023-07-30T08:58:32;94032.56;;;16.68;100.00
39739;BME280;25422;48.286;8.484;2023-07-30T09:00:59;94033.91;;;16.39;100.00
39739;BME280;25422;48.286;8.484;2023-07-30T09:03:27;94043.38;;;15.81;100.00
39739;BME280;25422;48.286;8.484;2023-07-30T09:05:54;94048.63;;;15.34;100.00
39739;BME280;25422;48.286;8.484;2023-07-30T09:08:20;94060.78;;;15.15;100.00
39739;BME280;25422;48.286;8.484;2023-07-30T09:10:48;94059.25;;;14.65;100.00
39739;BME280;25422;48.286;8.484;2023-07-30T09:13:21;94067.63;;;14.41;100.00
39739;BME280;25422;48.286;8.484;2023-07-30T09:15:48;94074.88;;;14.39;100.00
39739;BME280;25422;48.286;8.484;2023-07-30T09:18:16;94077.75;;;14.44;100.00
39739;BME280;25422;48.286;8.484;2023-07-30T09:20:43;94084.06;;;14.49;100.00
39739;BME280;25422;48.286;8.484;2023-07-30T09:23:09;94085.88;;;14.49;100.00
39739;BME280;25422;48.286;8.484;2023-07-30T09:25:35;94091.16;;;14.49;100.00
39739;BME280;25422;48.286;8.484;2023-07-30T09:28:01;94094.81;;;14.55;100.00
39739;BME280;25422;48.286;8.484;2023-07-30T09:30:27;94099.09;;;14.62;100.00
39739;BME280;25422;48.286;8.484;2023-07-30T09:32:56;94102.63;;;14.76;100.00
39739;BME280;25422;48.286;8.484;2023-07-30T09:35:23;94105.28;;;14.83;100.00
39739;BME280;25422;48.286;8.484;2023-07-30T09:37:50;94100.09;;;15.03;100.00
39739;BME280;25422;48.286;8.484;2023-07-30T09:40:31;94097.09;;;15.33;100.00
39739;BME280;25422;48.286;8.484;2023-07-30T09:42:57;94085.34;;;15.69;100.00
39739;BME280;25422;48.286;8.484;2023-07-30T09:45:24;94086.59;;;15.80;100.00
39739;BME280;25422;48.286;8.484;2023-07-30T09:47:51;94084.13;;;15.72;100.00
39739;BME280;25422;48.286;8.484;2023-07-30T09:50:18;94086.19;;;15.70;100.00
39739;BME280;25422;48.286;8.484;2023-07-30T09:52:44;94094.91;;;15.90;100.00
39739;BME280;25422;48.286;8.484;2023-07-30T09:55:10;94095.69;;;16.17;100.00
39739;BME280;25422;48.286;8.484;2023-07-30T09:57:39;94094.00;;;16.43;100.00
39739;BME280;25422;48.286;8.484;2023-07-30T10:00:06;94104.44;;;16.83;100.00
39739;BME280;25422;48.286;8.484;2023-07-30T10:02:39;94097.84;;;17.06;100.00
39739;BME280;25422;48.286;8.484;2023-07-30T10:05:11;94098.28;;;17.03;100.00
39739;BME280;25422;48.286;8.484;2023-07-30T10:08:07;94091.47;;;17.21;100.00
39739;BME280;25422;48.286;8.484;2023-07-30T10:10:33;94095.81;;;17.08;100.00
39739;BME280;25422;48.286;8.484;2023-07-30T10:13:04;94095.69;;;16.83;100.00
39739;BME280;25422;48.286;8.484;2023-07-30T10:15:34;94096.09;;;16.93;100.00
39739;BME280;25422;48.286;8.484;2023-07-30T10:18:01;94099.47;;;17.07;100.00
39739;BME280;25422;48.286;8.484;2023-07-30T10:20:28;94106.72;;;17.18;100.00
39739;BME280;25422;48.286;8.484;2023-07-30T10:23:00;94096.84;;;17.00;100.00
39739;BME280;25422;48.286;8.484;2023-07-30T10:25:49;94091.22;;;17.29;100.00
39739;BME280;25422;48.286;8.484;2023-07-30T10:28:33;94099.19;;;18.48;100.00
39739;BME280;25422;48.286;8.484;2023-07-30T10:31:07;94101.75;;;19.11;100.00
39739;BME280;25422;48.286;8.484;2023-07-30T10:33:50;94091.75;;;19.25;100.00
39739;BME280;25422;48.286;8.484;2023-07-30T10:36:33;94085.50;;;18.89;100.00
39739;BME280;25422;48.286;8.484;2023-07-30T10:39:19;94087.66;;;18.61;100.00
39739;BME280;25422;48.286;8.484;2023-07-30T10:41:47;94088.91;;;17.96;100.00
39739;BME280;25422;48.286;8.484;2023-07-30T10:44:35;94097.19;;;17.75;100.00
39739;BME280;25422;48.286;8.484;2023-07-30T10:47:02;94089.63;;;18.47;100.00
39739;BME280;25422;48.286;8.484;2023-07-30T10:49:29;94087.94;;;18.34;100.00
39739;BME280;25422;48.286;8.484;2023-07-30T10:51:58;94101.19;;;19.20;100.00
39739;BME280;25422;48.286;8.484;2023-07-30T10:54:23;94093.59;;;19.66;100.00
39739;BME280;25422;48.286;8.484;2023-07-30T10:56:49;94096.19;;;20.44;100.00
39739;BME280;25422;48.286;8.484;2023-07-30T10:59:15;94097.97;;;20.15;100.00
39739;BME280;25422;48.286;8.484;2023-07-30T11:01:42;94096.56;;;20.48;100.00
39739;BME280;25422;48.286;8.484;2023-07-30T11:04:09;94101.38;;;20.63;100.00
39739;BME280;25422;48.286;8.484;2023-07-30T11:06:35;94095.13;;;19.74;100.00
39739;BME280;25422;48.286;8.484;2023-07-30T11:09:00;94098.56;;;19.63;100.00
39739;BME280;25422;48.286;8.484;2023-07-30T11:11:26;94111.22;;;19.91;100.00
39739;BME280;25422;48.286;8.484;2023-07-30T11:13:51;94107.78;;;20.26;100.00
39739;BME280;25422;48.286;8.484;2023-07-30T11:16:17;94105.91;;;20.50;100.00
39739;BME280;25422;48.286;8.484;2023-07-30T11:18:44;94100.47;;;20.45;100.00
39739;BME280;25422;48.286;8.484;2023-07-30T11:21:14;94101.03;;;20.83;100.00
39739;BME280;25422;48.286;8.484;2023-07-30T11:23:41;94095.63;;;21.06;100.00
39739;BME280;25422;48.286;8.484;2023-07-30T11:26:12;94105.59;;;20.99;100.00
39739;BME280;25422;48.286;8.484;2023-07-30T11:28:41;94095.50;;;21.42;100.00
39739;BME280;25422;48.286;8.484;2023-07-30T11:31:13;94104.78;;;21.11;100.00
39739;BME280;25422;48.286;8.484;2023-07-30T11:33:43;94111.50;;;21.01;100.00
39739;BME280;25422;48.286;8.484;2023-07-30T11:36:14;94105.75;;;20.93;100.00
39739;BME280;25422;48.286;8.484;2023-07-30T11:38:41;94107.34;;;21.63;100.00
39739;BME280;25422;48.286;8.484;2023-07-30T11:41:07;94096.06;;;22.07;100.00
39739;BME280;25422;48.286;8.484;2023-07-30T11:43:39;94105.81;;;21.67;100.00
39739;BME280;25422;48.286;8.484;2023-07-30T11:46:15;94103.31;;;22.12;100.00
39739;BME280;25422;48.286;8.484;2023-07-30T11:48:44;94105.00;;;23.13;97.58
39739;BME280;25422;48.286;8.484;2023-07-30T11:51:24;94112.47;;;22.72;94.21
39739;BME280;25422;48.286;8.484;2023-07-30T11:53:52;94110.81;;;21.64;97.82
39739;BME280;25422;48.286;8.484;2023-07-30T11:56:22;94097.69;;;21.16;100.00
39739;BME280;25422;48.286;8.484;2023-07-30T11:58:49;94100.78;;;21.54;100.00
39739;BME280;25422;48.286;8.484;2023-07-30T12:01:16;94116.16;;;22.32;100.00
39739;BME280;25422;48.286;8.484;2023-07-30T12:03:41;94113.97;;;22.85;97.53
39739;BME280;25422;48.286;8.484;2023-07-30T12:06:09;94117.16;;;22.65;96.22
39739;BME280;25422;48.286;8.484;2023-07-30T12:08:35;94113.38;;;23.49;85.84
39739;BME280;25422;48.286;8.484;2023-07-30T12:11:09;94125.97;;;23.81;87.61
39739;BME280;25422;48.286;8.484;2023-07-30T12:13:42;94120.63;;;23.27;86.71
39739;BME280;25422;48.286;8.484;2023-07-30T12:16:09;94115.16;;;22.94;89.86
39739;BME280;25422;48.286;8.484;2023-07-30T12:18:34;94124.47;;;22.52;92.74
39739;BME280;25422;48.286;8.484;2023-07-30T12:21:00;94127.59;;;21.64;94.45
39739;BME280;25422;48.286;8.484;2023-07-30T12:23:25;94125.19;;;22.31;98.61
39739;BME280;25422;48.286;8.484;2023-07-30T12:25:51;94128.00;;;21.44;99.12
39739;BME280;25422;48.286;8.484;2023-07-30T12:28:16;94126.81;;;20.59;100.00
39739;BME280;25422;48.286;8.484;2023-07-30T12:30:42;94119.94;;;20.98;100.00
39739;BME280;25422;48.286;8.484;2023-07-30T12:33:07;94122.34;;;20.47;100.00
39739;BME280;25422;48.286;8.484;2023-07-30T12:35:33;94115.72;;;20.14;100.00
39739;BME280;25422;48.286;8.484;2023-07-30T12:38:01;94106.50;;;20.52;100.00
39739;BME280;25422;48.286;8.484;2023-07-30T12:40:26;94118.41;;;21.14;100.00
39739;BME280;25422;48.286;8.484;2023-07-30T12:42:55;94116.06;;;20.53;100.00
39739;BME280;25422;48.286;8.484;2023-07-30T12:45:20;94108.06;;;21.30;98.76
39739;BME280;25422;48.286;8.484;2023-07-30T12:47:46;94109.53;;;20.97;100.00